Aviation Digital Data Service (ADDS)

Output produced by METARs form (1126 UTC 19 June 2019)
found at http://www.aviationweather.gov/metar/data/
 
TAF MSLP 190925Z 1912/2012 07006KT CAVOK TX35/1918Z TN25/1912Z 
     FM191800 22007KT 9999 FEW033 FEW040CB 
     FM200000 VRB03KT 9999 FEW060 
     FM200400 06003KT 9999 BKN070
       
TAF MSSS 190925Z 1912/2012 35007KT CAVOK TX32/1920Z TN23/1912Z 
     FM191800 19008KT 9999 SCT030 FEW040CB 
     FM200400 35004KT 9999 SCT047